createdAt,value
2023-03-17T00:01:54.829Z,0.22
2023-03-17T00:04:26.598Z,0.77
2023-03-17T00:06:54.448Z,0.64
2023-03-17T00:09:22.250Z,0.51
2023-03-17T00:11:49.995Z,0.62
2023-03-17T00:14:16.964Z,0.57
2023-03-17T00:16:51.199Z,0.35
2023-03-17T00:19:24.192Z,0.61
2023-03-17T00:21:50.870Z,0.54
2023-03-17T00:24:17.522Z,0.58
2023-03-17T00:26:44.476Z,0.59
2023-03-17T00:29:11.100Z,0.42
2023-03-17T00:31:39.443Z,0.45
2023-03-17T00:34:06.569Z,0.55
2023-03-17T00:36:34.415Z,0.33
2023-03-17T00:39:03.687Z,0.71
2023-03-17T00:41:30.494Z,0.65
2023-03-17T00:43:57.318Z,0.62
2023-03-17T00:46:36.080Z,0.81
2023-03-17T00:49:20.208Z,0.88
2023-03-17T00:51:47.350Z,0.65
2023-03-17T00:54:16.293Z,0.86
2023-03-17T00:56:44.290Z,0.66
2023-03-17T00:59:20.794Z,0.91
2023-03-17T01:01:48.920Z,0.93
2023-03-17T01:04:15.814Z,0.89
2023-03-17T01:06:43.204Z,0.92
2023-03-17T01:09:14.722Z,0.95
2023-03-17T01:11:42.677Z,0.74
2023-03-17T01:14:10.651Z,0.79
2023-03-17T01:16:37.535Z,0.91
2023-03-17T01:19:04.656Z,0.71
2023-03-17T01:21:31.411Z,1.07
2023-03-17T01:23:58.624Z,1.01
2023-03-17T01:26:26.141Z,0.83
2023-03-17T01:28:52.805Z,0.89
2023-03-17T01:31:20.487Z,0.92
2023-03-17T01:33:47.399Z,1.04
2023-03-17T01:36:14.160Z,0.98
2023-03-17T01:38:40.899Z,1.18
2023-03-17T01:41:07.546Z,0.96
2023-03-17T01:43:34.177Z,0.88
2023-03-17T01:46:13.011Z,0.98
2023-03-17T01:49:24.950Z,1.13
2023-03-17T01:51:57.681Z,0.93
2023-03-17T01:54:55.709Z,0.74
2023-03-17T01:57:56.392Z,0.92
2023-03-17T02:00:26.574Z,0.76
2023-03-17T02:02:57.126Z,0.68
2023-03-17T02:05:29.950Z,0.89
2023-03-17T02:07:56.916Z,0.80
2023-03-17T02:10:29.755Z,0.88
2023-03-17T02:13:01.603Z,0.68
2023-03-17T02:15:46.230Z,0.92
2023-03-17T02:18:13.600Z,0.90
2023-03-17T02:20:40.116Z,0.58
2023-03-17T02:23:08.948Z,0.92
2023-03-17T02:25:36.739Z,0.87
2023-03-17T02:28:15.071Z,0.75
2023-03-17T02:30:43.230Z,0.85
2023-03-17T02:33:11.872Z,0.68
2023-03-17T02:35:40.851Z,1.01
2023-03-17T02:38:08.277Z,1.15
2023-03-17T02:40:34.826Z,0.94
2023-03-17T02:43:02.495Z,0.96
2023-03-17T02:45:29.150Z,0.82
2023-03-17T02:47:57.180Z,0.77
2023-03-17T02:50:27.850Z,0.95
2023-03-17T02:52:54.909Z,0.70
2023-03-17T02:55:21.602Z,0.93
2023-03-17T02:57:48.651Z,0.55
2023-03-17T03:00:15.523Z,0.69
2023-03-17T03:02:42.495Z,0.69
2023-03-17T03:05:10.741Z,0.74
2023-03-17T03:07:37.434Z,0.78
2023-03-17T03:10:05.470Z,0.59
2023-03-17T03:12:33.471Z,0.52
2023-03-17T03:15:00.697Z,0.57
2023-03-17T03:17:27.284Z,0.45
2023-03-17T03:19:53.948Z,0.46
2023-03-17T03:22:20.561Z,0.63
2023-03-17T03:24:47.082Z,0.78
2023-03-17T03:27:13.755Z,0.61
2023-03-17T03:29:41.692Z,0.69
2023-03-17T03:32:09.034Z,0.17
2023-03-17T03:34:35.650Z,0.24
2023-03-17T03:37:02.212Z,0.14
2023-03-17T03:39:28.742Z,0.44
2023-03-17T03:41:58.335Z,-0.03
2023-03-17T03:44:25.550Z,0.47
2023-03-17T03:46:52.557Z,0.18
2023-03-17T03:49:19.237Z,0.02
2023-03-17T03:51:46.047Z,0.43
2023-03-17T03:54:12.592Z,0.36
2023-03-17T03:56:39.175Z,0.42
2023-03-17T03:59:06.197Z,0.32
2023-03-17T04:01:32.891Z,0.56
2023-03-17T04:03:59.474Z,0.56
2023-03-17T04:06:26.322Z,0.29
2023-03-17T04:08:53.058Z,0.57
2023-03-17T04:11:19.905Z,0.49
2023-03-17T04:13:46.443Z,0.24
2023-03-17T04:16:13.199Z,0.34
2023-03-17T04:18:39.930Z,-0.15
2023-03-17T04:21:08.275Z,-0.17
2023-03-17T04:23:34.835Z,-0.19
2023-03-17T04:26:01.532Z,-0.16
2023-03-17T04:28:28.103Z,-0.18
2023-03-17T04:30:54.917Z,-0.24
2023-03-17T04:33:21.568Z,-0.33
2023-03-17T04:35:48.228Z,0.05
2023-03-17T04:38:14.814Z,0.20
2023-03-17T04:40:41.536Z,0.15
2023-03-17T04:43:09.068Z,0.08
2023-03-17T04:45:37.190Z,0.06
2023-03-17T04:48:04.228Z,-0.00
2023-03-17T04:50:33.330Z,-0.10
2023-03-17T04:53:00.296Z,-0.23
2023-03-17T04:55:27.542Z,-0.80
2023-03-17T04:57:54.166Z,-0.47
2023-03-17T05:00:21.551Z,-0.76
2023-03-17T05:02:48.204Z,-0.39
2023-03-17T05:05:14.965Z,-0.25
2023-03-17T05:07:42.011Z,-0.05
2023-03-17T05:10:09.373Z,-0.32
2023-03-17T05:12:36.112Z,0.03
2023-03-17T05:15:02.921Z,0.01
2023-03-17T05:17:29.646Z,0.13
2023-03-17T05:19:56.399Z,-0.41
2023-03-17T05:22:23.457Z,-0.29
2023-03-17T05:24:50.992Z,-0.42
2023-03-17T05:27:17.640Z,-0.19
2023-03-17T05:29:44.220Z,-0.21
2023-03-17T05:32:10.747Z,-0.04
2023-03-17T05:34:37.313Z,-0.50
2023-03-17T05:37:03.856Z,-0.10
2023-03-17T05:39:30.843Z,-0.02
2023-03-17T05:41:57.817Z,-0.35
2023-03-17T05:44:24.783Z,-0.66
2023-03-17T05:46:51.680Z,-0.83
2023-03-17T05:49:19.179Z,-0.85
2023-03-17T05:51:46.480Z,-0.71
2023-03-17T05:54:13.798Z,-0.38
2023-03-17T05:56:40.471Z,-0.68
2023-03-17T05:59:07.020Z,-0.64
2023-03-17T06:01:33.617Z,-0.72
2023-03-17T06:04:01.652Z,-0.64
2023-03-17T06:06:28.843Z,-0.94
2023-03-17T06:08:55.500Z,-0.72
2023-03-17T06:11:22.090Z,-1.15
2023-03-17T06:13:48.988Z,-0.63
2023-03-17T06:16:16.026Z,-0.93
2023-03-17T06:18:43.047Z,-0.73
2023-03-17T06:21:10.457Z,-0.90
2023-03-17T06:23:37.236Z,-1.18
2023-03-17T06:26:04.400Z,-1.01
2023-03-17T06:28:31.240Z,-0.97
2023-03-17T06:30:58.717Z,-0.56
2023-03-17T06:33:26.052Z,-0.85
2023-03-17T06:35:52.715Z,-0.81
2023-03-17T06:38:20.799Z,-0.29
2023-03-17T06:40:47.924Z,-0.29
2023-03-17T06:43:14.776Z,-0.06
2023-03-17T06:45:41.695Z,-0.40
2023-03-17T06:48:08.409Z,0.04
2023-03-17T06:50:35.363Z,-0.23
2023-03-17T06:53:01.978Z,0.32
2023-03-17T06:55:29.093Z,-0.06
2023-03-17T06:57:56.231Z,0.09
2023-03-17T11:31:54.724Z,9.63
2023-03-17T11:34:36.440Z,9.83
2023-03-17T11:37:44.389Z,9.40
2023-03-17T11:40:19.649Z,9.46
2023-03-17T11:43:33.569Z,9.48
2023-03-17T11:46:13.271Z,10.24
2023-03-17T11:49:00.756Z,10.39
2023-03-17T11:51:56.654Z,9.94
2023-03-17T11:54:42.120Z,9.99
2023-03-17T11:57:27.138Z,10.26
2023-03-17T12:00:03.371Z,10.22
2023-03-17T12:02:47.613Z,10.47
2023-03-17T12:05:24.144Z,10.39
2023-03-17T12:08:07.801Z,10.60
2023-03-17T12:10:41.930Z,10.09
2023-03-17T12:13:15.675Z,9.85
2023-03-17T12:15:52.981Z,10.55
2023-03-17T12:18:26.486Z,10.25
2023-03-17T12:21:24.132Z,10.71
2023-03-17T12:24:02.337Z,11.39
2023-03-17T12:26:35.310Z,11.33
2023-03-17T12:29:24.759Z,11.29
2023-03-17T12:32:05.515Z,12.12
2023-03-17T12:34:51.157Z,11.50
2023-03-17T12:37:18.718Z,11.62
2023-03-17T12:39:55.945Z,11.88
2023-03-17T12:42:53.614Z,11.92
2023-03-17T12:45:54.452Z,11.67
2023-03-17T12:48:43.418Z,11.25
2023-03-17T12:51:44.654Z,12.17
2023-03-17T12:54:33.399Z,11.32
2023-03-17T12:57:13.043Z,11.64
2023-03-17T12:59:43.985Z,12.22
2023-03-17T13:02:28.975Z,11.21
2023-03-17T13:05:00.945Z,11.07
2023-03-17T13:07:52.670Z,11.44
2023-03-17T13:10:19.174Z,11.56
2023-03-17T13:12:48.749Z,11.51
2023-03-17T13:15:21.568Z,12.03
2023-03-17T13:17:48.236Z,12.23
2023-03-17T13:20:20.637Z,12.11
2023-03-17T13:23:17.533Z,11.92
2023-03-17T13:25:53.426Z,12.02
2023-03-17T13:28:34.875Z,11.20
2023-03-17T13:31:13.797Z,12.09
2023-03-17T13:33:44.618Z,12.28
2023-03-17T13:36:19.346Z,11.72
2023-03-17T13:39:19.173Z,12.30
2023-03-17T13:42:05.575Z,11.63
2023-03-17T13:45:08.169Z,12.45
2023-03-17T13:47:38.309Z,11.98
2023-03-17T13:50:12.539Z,11.81
2023-03-17T13:52:48.429Z,11.47
2023-03-17T13:55:17.954Z,11.58
2023-03-17T13:58:08.684Z,11.05
2023-03-17T14:00:43.611Z,10.91
2023-03-17T14:03:15.888Z,11.43
2023-03-17T14:05:46.377Z,11.94
2023-03-17T14:08:18.380Z,11.35
2023-03-17T14:10:53.624Z,11.22
2023-03-17T14:13:24.334Z,11.68
2023-03-17T14:15:57.042Z,11.66
2023-03-17T14:18:32.766Z,11.16
2023-03-17T14:21:02.702Z,11.27
2023-03-17T14:23:29.908Z,11.94
2023-03-17T14:25:58.649Z,11.84
2023-03-17T14:28:28.487Z,12.39
2023-03-17T14:31:01.091Z,12.39
2023-03-17T14:33:34.536Z,12.14
2023-03-17T14:36:03.138Z,12.04
2023-03-17T14:38:35.723Z,11.94
2023-03-17T14:41:23.913Z,11.92
2023-03-17T14:43:56.115Z,12.26
2023-03-17T14:46:37.903Z,12.44
2023-03-17T14:49:24.770Z,12.10
2023-03-17T14:51:57.306Z,11.97
2023-03-17T14:54:31.711Z,11.07
2023-03-17T14:57:06.486Z,11.74
2023-03-17T14:59:40.746Z,11.52
2023-03-17T15:02:16.531Z,11.58
2023-03-17T15:04:53.673Z,11.56
2023-03-17T15:07:40.455Z,11.19
2023-03-17T15:10:15.801Z,11.22
2023-03-17T15:12:43.051Z,11.63
2023-03-17T15:15:26.384Z,10.90
2023-03-17T15:17:59.340Z,10.92
2023-03-17T15:20:33.784Z,11.27
2023-03-17T15:23:25.063Z,10.77
2023-03-17T15:25:56.797Z,10.40
2023-03-17T15:28:28.252Z,10.67
2023-03-17T15:31:08.746Z,10.49
2023-03-17T15:33:45.689Z,11.03
2023-03-17T15:36:31.407Z,10.94
2023-03-17T15:38:59.331Z,10.61
2023-03-17T15:41:26.145Z,10.65
2023-03-17T15:43:53.587Z,10.67
2023-03-17T15:46:31.121Z,10.32
2023-03-17T15:48:58.137Z,10.52
2023-03-17T15:51:24.788Z,10.57
2023-03-17T15:53:51.470Z,10.55
2023-03-17T15:56:20.975Z,10.13
2023-03-17T15:58:49.321Z,10.28
2023-03-17T16:01:16.658Z,10.04
2023-03-17T16:03:45.452Z,10.02
2023-03-17T16:08:42.853Z,9.94
2023-03-17T16:11:15.189Z,9.50
2023-03-17T16:13:41.910Z,9.55
2023-03-17T16:16:17.063Z,9.62
2023-03-17T16:18:44.050Z,9.37
2023-03-17T16:21:11.582Z,9.40
2023-03-17T16:23:38.118Z,8.94
2023-03-17T16:26:15.044Z,8.98
2023-03-17T16:28:44.738Z,9.24
2023-03-17T16:31:25.472Z,9.12
2023-03-17T16:33:53.584Z,9.14
2023-03-17T16:36:21.792Z,9.12
2023-03-17T16:38:49.791Z,8.71
2023-03-17T16:41:27.354Z,8.86
2023-03-17T16:44:01.220Z,8.68
2023-03-17T16:46:34.056Z,8.75
2023-03-17T16:49:01.837Z,8.89
2023-03-17T16:51:28.404Z,8.75
2023-03-17T16:53:55.176Z,8.77
2023-03-17T16:56:25.099Z,8.59
2023-03-17T16:58:51.692Z,8.34
2023-03-17T17:01:21.877Z,8.33
2023-03-17T17:03:48.792Z,8.13
2023-03-17T17:06:15.859Z,8.27
2023-03-17T17:08:49.004Z,8.31
2023-03-17T17:11:17.961Z,8.14
2023-03-17T17:13:46.344Z,7.87
2023-03-17T17:16:27.704Z,7.82
2023-03-17T17:18:54.858Z,7.89
2023-03-17T17:21:21.408Z,7.98
2023-03-17T17:23:47.977Z,7.74
2023-03-17T17:26:14.900Z,7.44
2023-03-17T17:28:41.493Z,7.46
2023-03-17T17:31:09.119Z,7.25
2023-03-17T17:33:36.676Z,7.27
2023-03-17T17:36:11.590Z,7.12
2023-03-17T17:38:38.254Z,7.23
2023-03-17T17:41:08.920Z,7.05
2023-03-17T17:43:35.586Z,7.17
2023-03-17T17:46:02.151Z,6.92
2023-03-17T17:48:29.201Z,7.00
2023-03-17T17:50:56.848Z,6.99
2023-03-17T17:53:24.190Z,7.12
2023-03-17T17:55:51.807Z,7.13
2023-03-17T17:58:21.590Z,6.64
2023-03-17T18:00:48.820Z,6.63
2023-03-17T18:03:15.549Z,6.63
2023-03-17T18:05:42.161Z,6.86
2023-03-17T18:08:08.695Z,6.84
2023-03-17T18:10:35.332Z,6.85
2023-03-17T18:13:01.912Z,6.89
2023-03-17T18:15:28.985Z,7.00
2023-03-17T18:17:56.401Z,7.01
2023-03-17T18:20:24.036Z,6.99
2023-03-17T18:22:51.576Z,6.99
2023-03-17T18:25:19.508Z,6.98
2023-03-17T18:27:58.008Z,6.96
2023-03-17T18:30:28.366Z,6.85
2023-03-17T18:32:58.331Z,6.91
2023-03-17T18:35:27.888Z,6.90
2023-03-17T18:37:57.305Z,6.92
2023-03-17T18:40:25.071Z,6.81
2023-03-17T18:42:51.590Z,6.86
2023-03-17T18:45:18.332Z,6.82
2023-03-17T18:47:45.290Z,6.69
2023-03-17T18:50:13.672Z,6.79
2023-03-17T18:52:42.018Z,6.74
2023-03-17T18:55:11.108Z,6.77
2023-03-17T18:57:38.295Z,6.69
2023-03-17T19:00:08.635Z,6.62
2023-03-17T19:02:35.781Z,6.50
2023-03-17T19:05:02.445Z,6.43
2023-03-17T19:07:29.405Z,6.57
2023-03-17T19:09:56.108Z,6.59
2023-03-17T19:12:24.464Z,6.69
2023-03-17T19:14:52.196Z,6.68
2023-03-17T19:17:18.876Z,6.60
2023-03-17T19:19:45.580Z,6.59
2023-03-17T19:22:12.244Z,6.66
2023-03-17T19:24:38.977Z,6.68
2023-03-17T19:27:05.702Z,6.53
2023-03-17T19:29:33.499Z,6.61
2023-03-17T19:32:00.517Z,6.58
2023-03-17T19:34:30.102Z,6.58
2023-03-17T19:36:57.054Z,6.59
2023-03-17T19:39:23.831Z,6.55
2023-03-17T19:41:54.953Z,6.57
2023-03-17T19:44:22.328Z,6.50
2023-03-17T19:46:49.463Z,6.49
2023-03-17T19:49:16.515Z,6.45
2023-03-17T19:51:43.800Z,6.35
2023-03-17T19:54:11.152Z,6.33
2023-03-17T19:56:38.650Z,6.31
2023-03-17T19:59:06.611Z,6.30
2023-03-17T20:01:34.125Z,6.17
2023-03-17T20:04:01.131Z,6.06
2023-03-17T20:06:28.097Z,6.12
2023-03-17T20:08:54.669Z,6.14
2023-03-17T20:11:21.692Z,6.12
2023-03-17T20:13:48.335Z,6.11
2023-03-17T20:16:16.467Z,6.06
2023-03-17T20:18:43.027Z,5.99
2023-03-17T20:21:13.751Z,5.77
2023-03-17T20:23:40.317Z,5.86
2023-03-17T20:26:07.492Z,5.56
2023-03-17T20:28:34.347Z,5.48
2023-03-17T20:31:03.176Z,5.64
2023-03-17T20:33:31.706Z,5.75
2023-03-17T20:35:58.319Z,5.73
2023-03-17T20:38:25.597Z,5.71
2023-03-17T20:40:52.536Z,5.73
2023-03-17T20:43:19.362Z,5.78
2023-03-17T20:45:45.918Z,5.76
2023-03-17T20:48:13.298Z,5.66
2023-03-17T20:50:40.944Z,5.63
2023-03-17T20:53:07.523Z,5.70
2023-03-17T20:55:34.171Z,5.64
2023-03-17T20:58:01.724Z,5.58
2023-03-17T21:00:30.234Z,5.39
2023-03-17T21:02:57.092Z,5.59
2023-03-17T21:05:26.449Z,5.63
2023-03-17T21:07:53.351Z,5.64
2023-03-17T21:10:20.644Z,5.54
2023-03-17T21:12:48.135Z,5.45
2023-03-17T21:15:15.240Z,5.38
2023-03-17T21:17:42.407Z,5.39
2023-03-17T21:20:12.261Z,5.32
2023-03-17T21:22:39.916Z,5.27
2023-03-17T21:25:08.654Z,5.24
2023-03-17T21:27:37.657Z,5.11
2023-03-17T21:30:09.722Z,5.06
2023-03-17T21:32:36.463Z,5.10
2023-03-17T21:35:03.817Z,5.13
2023-03-17T21:37:30.457Z,5.16
2023-03-17T21:39:57.055Z,5.11
2023-03-17T21:42:24.704Z,5.09
2023-03-17T21:44:52.232Z,5.11
2023-03-17T21:47:19.588Z,5.01
2023-03-17T21:49:46.887Z,4.98
2023-03-17T21:52:14.948Z,5.07
2023-03-17T21:54:41.855Z,4.74
2023-03-17T21:57:08.570Z,4.42
2023-03-17T21:59:35.680Z,4.80
2023-03-17T22:02:02.818Z,4.95
2023-03-17T22:04:30.084Z,4.91
2023-03-17T22:06:58.704Z,4.99
2023-03-17T22:09:25.994Z,4.98
2023-03-17T22:11:52.586Z,4.84
2023-03-17T22:14:20.558Z,4.82
2023-03-17T22:16:48.804Z,4.84
2023-03-17T22:19:16.918Z,4.70
2023-03-17T22:21:44.346Z,4.80
2023-03-17T23:03:58.282Z,4.33
2023-03-17T23:06:25.776Z,4.40
2023-03-17T23:08:52.424Z,4.45
2023-03-17T23:11:25.102Z,4.45
2023-03-17T23:13:52.599Z,4.34
2023-03-17T23:16:20.265Z,4.52
2023-03-17T23:18:47.193Z,4.49
2023-03-17T23:21:32.430Z,4.45
2023-03-17T23:23:59.980Z,4.43
2023-03-17T23:26:27.972Z,4.42
2023-03-17T23:28:54.699Z,4.27
2023-03-17T23:31:22.494Z,4.30
2023-03-17T23:33:50.411Z,4.29
2023-03-17T23:36:17.476Z,4.42
2023-03-17T23:38:45.500Z,4.42
2023-03-17T23:41:13.372Z,4.39
2023-03-17T23:43:40.506Z,4.52
2023-03-17T23:46:07.200Z,4.57
2023-03-17T23:48:33.925Z,4.54
2023-03-17T23:51:01.079Z,4.42
2023-03-17T23:53:28.322Z,4.48
2023-03-17T23:55:55.203Z,4.57
2023-03-17T23:58:22.784Z,4.46
